createdAt,value
2018-06-27T00:00:29.932Z,14.8
2018-06-27T00:01:52.344Z,14.8
2018-06-27T00:03:17.284Z,14.9
2018-06-27T00:04:39.676Z,14.8
2018-06-27T00:05:59.525Z,14.8
2018-06-27T00:07:21.900Z,14.8
2018-06-27T00:08:41.753Z,14.9
2018-06-27T00:10:04.105Z,14.9
2018-06-27T00:11:31.602Z,14.7
2018-06-27T00:12:53.950Z,15
2018-06-27T00:14:23.907Z,14.8
2018-06-27T00:15:46.284Z,14.8
2018-06-27T00:17:08.706Z,14.8
2018-06-27T00:18:28.539Z,14.8
2018-06-27T00:19:53.465Z,14.8
2018-06-27T00:21:18.353Z,14.8
2018-06-27T00:22:40.704Z,14.8
2018-06-27T00:24:00.528Z,14.8
2018-06-27T00:25:27.931Z,14.8
2018-06-27T00:26:47.803Z,14.8
2018-06-27T00:28:10.155Z,14.8
2018-06-27T00:29:29.981Z,14.8
2018-06-27T00:30:49.812Z,14.8
2018-06-27T00:32:09.643Z,14.8
2018-06-27T00:33:37.100Z,14.8
2018-06-27T00:34:56.956Z,14.8
2018-06-27T00:36:16.850Z,14.7
2018-06-27T00:37:36.740Z,14.7
2018-06-27T00:38:56.598Z,14.8
2018-06-27T00:40:16.509Z,14.8
2018-06-27T00:41:36.351Z,14.8
2018-06-27T00:42:56.225Z,14.8
2018-06-27T00:44:16.092Z,14.8
2018-06-27T00:45:38.456Z,14.7
2018-06-27T00:47:00.817Z,14.8
2018-06-27T00:48:20.636Z,14.8
2018-06-27T00:49:40.502Z,14.8
2018-06-27T00:51:02.872Z,14.7
2018-06-27T00:52:22.694Z,14.8
2018-06-27T00:53:42.546Z,14.7
2018-06-27T00:55:02.407Z,14.8
2018-06-27T00:56:24.768Z,14.8
2018-06-27T00:57:47.176Z,14.7
2018-06-27T00:59:07.032Z,14.8
2018-06-27T01:00:26.880Z,14.8
2018-06-27T01:01:49.285Z,14.8
2018-06-27T01:03:11.681Z,14.8
2018-06-27T01:04:39.097Z,14.8
2018-06-27T01:06:01.514Z,14.7
2018-06-27T01:07:21.365Z,14.7
2018-06-27T01:08:43.730Z,14.7
2018-06-27T01:10:06.124Z,14.7
2018-06-27T01:11:31.082Z,14.8
2018-06-27T01:12:50.979Z,14.7
2018-06-27T01:14:10.807Z,14.7
2018-06-27T01:15:35.693Z,14.8
2018-06-27T01:16:55.513Z,14.7
2018-06-27T01:18:15.359Z,14.7
2018-06-27T01:19:35.262Z,14.7
2018-06-27T01:20:55.092Z,14.7
2018-06-27T01:22:14.911Z,14.8
2018-06-27T01:23:34.773Z,14.7
2018-06-27T01:24:57.184Z,14.7
2018-06-27T01:26:22.138Z,14.8
2018-06-27T01:27:42.029Z,14.9
2018-06-27T01:29:04.422Z,14.8
2018-06-27T01:30:26.808Z,14.8
2018-06-27T01:31:46.712Z,14.7
2018-06-27T01:33:09.075Z,14.7
2018-06-27T01:34:33.964Z,14.7
2018-06-27T01:35:56.392Z,14.7
2018-06-27T01:37:18.774Z,14.7
2018-06-27T01:38:43.691Z,14.6
2018-06-27T01:40:06.135Z,14.7
2018-06-27T01:41:31.034Z,14.7
2018-06-27T01:42:50.878Z,14.7
2018-06-27T01:44:18.349Z,14.7
2018-06-27T01:45:38.176Z,14.7
2018-06-27T01:47:00.556Z,14.7
2018-06-27T01:48:25.438Z,14.7
2018-06-27T01:49:45.265Z,14.7
2018-06-27T01:51:05.141Z,14.7
2018-06-27T01:52:24.971Z,14.7
2018-06-27T01:53:49.853Z,14.6
2018-06-27T01:55:09.673Z,14.7
2018-06-27T01:56:32.088Z,14.7
2018-06-27T01:57:51.975Z,14.7
2018-06-27T01:59:11.827Z,14.7
2018-06-27T02:00:41.805Z,14.7
2018-06-27T02:02:01.692Z,14.7
2018-06-27T02:03:21.542Z,14.5
2018-06-27T02:04:41.419Z,14.5
2018-06-27T02:06:01.308Z,14.6
2018-06-27T02:07:21.165Z,14.6
2018-06-27T02:08:46.072Z,14.6
2018-06-27T02:10:05.930Z,14.6
2018-06-27T02:11:25.791Z,14.6
2018-06-27T02:12:48.221Z,14.6
2018-06-27T02:14:10.587Z,14.6
2018-06-27T02:15:30.410Z,14.6
2018-06-27T02:16:50.249Z,14.6
2018-06-27T02:18:15.153Z,14.5
2018-06-27T02:19:35.034Z,14.5
2018-06-27T02:20:57.441Z,14.5
2018-06-27T02:22:17.278Z,14.4
2018-06-27T02:23:44.705Z,14.4
2018-06-27T02:25:04.567Z,14.3
2018-06-27T02:26:24.438Z,14.4
2018-06-27T02:27:46.832Z,14.5
2018-06-27T02:29:09.206Z,14.4
2018-06-27T02:30:29.055Z,14.4
2018-06-27T02:31:48.915Z,14.4
2018-06-27T02:33:08.766Z,14.4
2018-06-27T02:34:31.161Z,14.4
2018-06-27T02:35:53.525Z,14.4
2018-06-27T02:37:13.380Z,14.4
2018-06-27T02:38:33.208Z,14.4
2018-06-27T02:40:00.635Z,14.3
2018-06-27T02:41:23.047Z,14.3
2018-06-27T02:42:42.877Z,14.3
2018-06-27T02:44:05.231Z,14.2
2018-06-27T02:45:30.129Z,14.2
2018-06-27T02:46:52.488Z,14.2
2018-06-27T02:48:14.910Z,14.2
2018-06-27T02:49:34.732Z,14.2
2018-06-27T02:50:54.564Z,14.1
2018-06-27T02:52:16.972Z,14.1
2018-06-27T02:53:41.864Z,14
2018-06-27T02:55:01.717Z,14
2018-06-27T02:56:24.080Z,14
2018-06-27T02:57:43.919Z,14
2018-06-27T02:59:03.799Z,14.1
2018-06-27T03:00:23.651Z,13.9
2018-06-27T03:01:48.542Z,13.9
2018-06-27T03:03:08.425Z,13.9
2018-06-27T03:04:28.262Z,13.9
2018-06-27T03:05:50.667Z,13.9
2018-06-27T03:07:10.527Z,13.8
2018-06-27T03:08:30.408Z,13.8
2018-06-27T03:09:50.288Z,13.8
2018-06-27T03:11:12.662Z,13.9
2018-06-27T03:12:35.015Z,13.9
2018-06-27T03:14:02.456Z,13.8
2018-06-27T03:15:27.369Z,13.9
2018-06-27T03:16:49.723Z,13.8
2018-06-27T03:18:14.658Z,13.8
2018-06-27T03:19:37.007Z,13.7
2018-06-27T03:21:04.441Z,13.8
2018-06-27T03:22:24.304Z,13.8
2018-06-27T03:23:44.189Z,13.8
2018-06-27T03:25:09.093Z,13.7
2018-06-27T03:26:28.928Z,13.7
2018-06-27T03:27:58.884Z,13.7
2018-06-27T03:29:23.782Z,13.8
2018-06-27T03:30:43.624Z,13.7
2018-06-27T03:32:03.471Z,13.8
2018-06-27T03:33:23.329Z,13.8
2018-06-27T03:34:43.156Z,13.7
2018-06-27T03:36:10.600Z,13.7
2018-06-27T03:37:30.430Z,13.7
2018-06-27T03:38:50.314Z,13.8
2018-06-27T03:40:12.729Z,13.7
2018-06-27T03:41:40.150Z,13.7
2018-06-27T03:43:02.552Z,13.7
2018-06-27T03:44:22.420Z,13.7
2018-06-27T03:45:44.783Z,13.7
2018-06-27T03:47:04.652Z,13.7
2018-06-27T03:48:29.550Z,13.6
2018-06-27T03:49:49.387Z,13.7
2018-06-27T03:51:11.749Z,13.7
2018-06-27T03:52:31.627Z,13.7
2018-06-27T03:53:51.482Z,13.7
2018-06-27T03:55:21.505Z,13.7
2018-06-27T03:56:41.352Z,13.7
2018-06-27T03:58:01.207Z,13.6
2018-06-27T03:59:21.115Z,13.6
2018-06-27T04:00:40.978Z,13.6
2018-06-27T04:02:10.952Z,13.6
2018-06-27T04:03:35.876Z,13.6
2018-06-27T04:05:03.306Z,13.6
2018-06-27T04:06:25.746Z,13.6
2018-06-27T04:07:45.627Z,13.6
2018-06-27T04:09:05.493Z,13.6
2018-06-27T04:10:25.316Z,13.5
2018-06-27T04:11:45.205Z,13.5
2018-06-27T04:13:07.711Z,13.5
2018-06-27T04:14:27.654Z,13.6
2018-06-27T04:15:50.046Z,13.7
2018-06-27T04:17:09.875Z,13.6
2018-06-27T04:18:34.810Z,13.6
2018-06-27T04:19:57.168Z,13.6
2018-06-27T04:21:17.001Z,13.6
2018-06-27T04:22:39.445Z,13.7
2018-06-27T04:24:01.809Z,13.7
2018-06-27T04:25:21.636Z,13.7
2018-06-27T04:26:41.485Z,13.6
2018-06-27T04:28:01.345Z,13.6
2018-06-27T04:29:23.758Z,13.6
2018-06-27T04:30:48.641Z,13.6
2018-06-27T04:32:08.511Z,13.6
2018-06-27T04:33:28.392Z,13.6
2018-06-27T04:34:48.214Z,13.6
2018-06-27T04:36:08.092Z,13.6
2018-06-27T04:37:30.614Z,13.6
2018-06-27T04:38:50.463Z,13.6
2018-06-27T04:40:17.896Z,13.7
2018-06-27T04:41:42.785Z,13.6
2018-06-27T04:43:10.226Z,13.6
2018-06-27T04:44:30.092Z,13.6
2018-06-27T04:45:49.972Z,13.7
2018-06-27T04:47:12.324Z,13.8
2018-06-27T04:48:32.151Z,14
2018-06-27T04:49:54.519Z,14
2018-06-27T04:51:16.922Z,14
2018-06-27T04:52:36.810Z,14.1
2018-06-27T04:53:56.672Z,14.1
2018-06-27T04:55:16.496Z,14.1
2018-06-27T04:56:36.329Z,14.2
2018-06-27T04:57:56.188Z,14.3
2018-06-27T04:59:18.558Z,14.3
2018-06-27T05:00:40.971Z,14.4
2018-06-27T05:02:00.871Z,14.4
2018-06-27T05:03:30.852Z,14.5
2018-06-27T05:04:55.831Z,14.4
2018-06-27T05:06:15.742Z,14.4
2018-06-27T05:07:35.721Z,14.4
2018-06-27T05:08:55.752Z,14.4
2018-06-27T05:10:15.618Z,14.4
2018-06-27T05:11:35.524Z,14.4
2018-06-27T05:13:03.080Z,14.4
2018-06-27T05:14:22.945Z,14.4
2018-06-27T05:15:50.391Z,14.5
2018-06-27T05:17:25.474Z,14.5
2018-06-27T05:18:45.379Z,14.5
2018-06-27T05:20:15.389Z,14.6
2018-06-27T05:21:37.805Z,14.6
2018-06-27T05:22:57.633Z,14.6
2018-06-27T05:24:17.516Z,14.6
2018-06-27T05:25:37.395Z,14.6
2018-06-27T05:26:59.773Z,14.7
2018-06-27T05:28:19.602Z,14.7
2018-06-27T05:29:39.461Z,14.6
2018-06-27T05:31:01.828Z,14.4
2018-06-27T05:32:24.213Z,14.7
2018-06-27T05:33:51.709Z,14.8
2018-06-27T05:35:11.584Z,14.8
2018-06-27T05:36:41.576Z,14.8
2018-06-27T05:38:03.989Z,14.8
2018-06-27T05:39:26.392Z,14.8
2018-06-27T05:40:48.806Z,14.7
2018-06-27T05:42:08.689Z,14.7
2018-06-27T05:43:31.079Z,14.6
2018-06-27T05:44:50.936Z,14.7
2018-06-27T05:46:10.808Z,14.7
2018-06-27T05:47:33.175Z,14.7
2018-06-27T05:48:55.562Z,14.8
2018-06-27T05:50:15.411Z,14.8
2018-06-27T05:51:35.369Z,14.7
2018-06-27T05:52:57.746Z,14.7
2018-06-27T05:54:30.266Z,14.6
2018-06-27T05:55:50.123Z,14.7
2018-06-27T05:57:09.948Z,14.8
2018-06-27T05:58:39.931Z,14.8
2018-06-27T05:59:59.821Z,14.8
2018-06-27T06:01:19.704Z,14.8
2018-06-27T06:02:42.065Z,14.9
2018-06-27T06:04:01.886Z,15
2018-06-27T06:05:24.246Z,15.1
2018-06-27T06:06:44.121Z,15
2018-06-27T06:08:03.954Z,15
2018-06-27T06:09:31.392Z,15
2018-06-27T06:10:56.271Z,15
2018-06-27T06:12:16.144Z,15
2018-06-27T06:13:38.500Z,15
2018-06-27T06:14:58.378Z,15.1
2018-06-27T06:16:20.752Z,15.2
2018-06-27T06:17:43.157Z,15.2
2018-06-27T06:19:08.040Z,15.2
2018-06-27T06:20:27.894Z,15.2
2018-06-27T06:21:47.743Z,15.2
2018-06-27T06:23:07.603Z,15.3
2018-06-27T06:24:32.491Z,15.2
2018-06-27T06:25:54.860Z,15.3
2018-06-27T06:27:14.701Z,15.5
2018-06-27T06:28:37.109Z,15.4
2018-06-27T06:30:07.084Z,15.4
2018-06-27T06:31:26.915Z,15.5
2018-06-27T06:32:51.849Z,15.5
2018-06-27T06:34:16.744Z,15.4
2018-06-27T06:35:36.568Z,15.5
2018-06-27T06:36:56.406Z,15.5
2018-06-27T06:38:18.806Z,15.4
2018-06-27T06:39:41.169Z,15.5
2018-06-27T06:41:00.991Z,15.5
2018-06-27T06:42:25.924Z,15.6
2018-06-27T06:43:45.779Z,15.6
2018-06-27T06:45:05.672Z,15.7
2018-06-27T06:46:40.693Z,15.7
2018-06-27T06:48:03.056Z,15.7
2018-06-27T06:49:27.940Z,15.7
2018-06-27T06:50:47.763Z,15.6
2018-06-27T06:52:15.306Z,15.7
2018-06-27T06:53:35.247Z,15.8
2018-06-27T06:54:57.621Z,15.8
2018-06-27T06:56:20.012Z,15.8
2018-06-27T06:57:44.921Z,15.7
2018-06-27T06:59:04.765Z,15.7
2018-06-27T07:00:24.591Z,15.7
2018-06-27T07:01:44.468Z,15.8
2018-06-27T07:03:09.361Z,15.8
2018-06-27T07:04:31.741Z,15.8
2018-06-27T07:05:59.154Z,15.8
2018-06-27T07:07:19.002Z,15.9
2018-06-27T07:08:38.841Z,15.9
2018-06-27T07:10:06.256Z,15.9
2018-06-27T07:11:31.184Z,15.9
2018-06-27T07:12:51.016Z,16
2018-06-27T07:14:10.890Z,16.1
2018-06-27T07:15:30.722Z,16.1
2018-06-27T07:16:58.139Z,16.1
2018-06-27T07:18:18.011Z,16.2
2018-06-27T07:19:40.407Z,16.1
2018-06-27T07:21:12.936Z,16.2
2018-06-27T07:22:40.379Z,16.3
2018-06-27T07:24:00.291Z,16.3
2018-06-27T07:25:20.204Z,16.2
2018-06-27T07:26:45.159Z,16.1
2018-06-27T07:28:05.013Z,16.2
2018-06-27T07:29:32.487Z,16.2
2018-06-27T07:30:54.873Z,16.3
2018-06-27T07:32:14.738Z,16.4
2018-06-27T07:33:34.623Z,16.4
2018-06-27T07:34:56.982Z,16.5
2018-06-27T07:36:16.855Z,16.5
2018-06-27T07:37:41.783Z,16.4
2018-06-27T07:39:01.605Z,16.5
2018-06-27T07:40:21.487Z,16.5
2018-06-27T07:41:41.350Z,16.5
2018-06-27T07:43:01.170Z,16.5
2018-06-27T07:44:21.048Z,16.5
2018-06-27T07:45:40.890Z,16.5
2018-06-27T07:47:03.246Z,16.5
2018-06-27T07:48:25.651Z,16.5
2018-06-27T07:49:45.533Z,16.5
2018-06-27T07:51:07.987Z,16.5
2018-06-27T07:52:37.944Z,16.5
2018-06-27T07:53:57.792Z,16.5
2018-06-27T07:55:20.195Z,16.5
2018-06-27T07:56:45.180Z,16.6
2018-06-27T07:58:05.082Z,16.6
2018-06-27T07:59:27.428Z,16.6
2018-06-27T08:00:52.361Z,16.6
2018-06-27T08:02:14.749Z,16.6
2018-06-27T08:03:44.714Z,16.6
2018-06-27T08:05:09.656Z,16.6
2018-06-27T08:06:29.490Z,16.6
2018-06-27T08:08:14.668Z,16.6
2018-06-27T08:09:39.628Z,16.7
2018-06-27T08:11:02.035Z,16.6
2018-06-27T08:12:24.435Z,16.8
2018-06-27T08:13:44.376Z,16.7
2018-06-27T08:15:04.238Z,16.7
2018-06-27T08:16:24.066Z,16.8
2018-06-27T08:17:46.452Z,16.8
2018-06-27T08:19:08.884Z,16.8
2018-06-27T08:20:28.718Z,16.7
2018-06-27T08:21:53.629Z,16.7
2018-06-27T08:23:15.977Z,16.7
2018-06-27T08:24:43.392Z,16.7
2018-06-27T08:26:03.332Z,16.7
2018-06-27T08:27:28.261Z,16.8
2018-06-27T08:28:50.638Z,16.7
2018-06-27T08:30:10.469Z,16.7
2018-06-27T08:31:30.342Z,16.7
2018-06-27T08:32:50.248Z,16.7
2018-06-27T08:34:15.183Z,16.7
2018-06-27T08:35:37.587Z,16.7
2018-06-27T08:36:57.437Z,16.7
2018-06-27T08:38:17.290Z,16.7
2018-06-27T08:39:39.719Z,16.7
2018-06-27T08:41:04.686Z,16.8
2018-06-27T08:42:24.596Z,16.8
2018-06-27T08:43:46.984Z,16.8
2018-06-27T08:45:06.869Z,16.8
2018-06-27T08:46:26.750Z,16.8
2018-06-27T08:47:46.613Z,16.8
2018-06-27T08:49:11.515Z,16.8
2018-06-27T08:50:31.334Z,16.7
2018-06-27T08:51:51.167Z,16.7
2018-06-27T08:53:16.096Z,16.7
2018-06-27T08:54:35.958Z,16.7
2018-06-27T08:56:05.924Z,16.7
2018-06-27T08:57:25.772Z,16.8
2018-06-27T08:58:58.250Z,16.9
2018-06-27T09:00:20.620Z,16.8
2018-06-27T09:01:40.444Z,16.8
2018-06-27T09:03:02.835Z,16.8
2018-06-27T09:04:22.661Z,16.8
2018-06-27T09:05:42.520Z,16.7
2018-06-27T09:07:02.342Z,16.9
2018-06-27T09:08:24.750Z,16.8
2018-06-27T09:09:44.633Z,16.8
2018-06-27T09:11:04.487Z,16.9
2018-06-27T09:12:29.410Z,17
2018-06-27T09:13:49.248Z,16.9
2018-06-27T09:15:19.250Z,16.9
2018-06-27T09:16:39.080Z,16.9
2018-06-27T09:17:58.972Z,16.9
2018-06-27T09:19:18.833Z,16.8
2018-06-27T09:20:38.656Z,16.7
2018-06-27T09:22:08.606Z,16.8
2018-06-27T09:23:41.105Z,16.8
2018-06-27T09:25:00.990Z,16.8
2018-06-27T09:26:23.438Z,16.8
2018-06-27T09:27:53.466Z,16.9
2018-06-27T09:29:13.355Z,16.9
2018-06-27T09:30:33.188Z,17
2018-06-27T09:32:05.677Z,16.9
2018-06-27T09:33:33.091Z,16.9
2018-06-27T09:34:52.935Z,16.9
2018-06-27T09:36:12.824Z,16.9
2018-06-27T09:37:40.235Z,17
2018-06-27T09:39:07.685Z,16.9
2018-06-27T09:40:35.114Z,16.9
2018-06-27T09:41:57.529Z,16.9
2018-06-27T09:43:22.425Z,17
2018-06-27T09:44:42.303Z,17
2018-06-27T09:46:02.164Z,16.9
2018-06-27T09:47:27.044Z,16.9
2018-06-27T09:48:46.874Z,17
2018-06-27T09:50:06.753Z,17
2018-06-27T09:51:26.579Z,17.1
2018-06-27T09:52:46.407Z,17
2018-06-27T09:54:08.773Z,17
2018-06-27T09:55:28.647Z,17
2018-06-27T09:56:51.170Z,17
2018-06-27T09:58:13.596Z,17
2018-06-27T09:59:33.414Z,17.1
2018-06-27T10:01:03.404Z,17.2
2018-06-27T10:02:30.866Z,17.1
2018-06-27T10:03:50.719Z,17.1
2018-06-27T10:05:10.588Z,17.1
2018-06-27T10:06:32.986Z,17.1
2018-06-27T10:07:57.928Z,17.1
2018-06-27T10:09:20.297Z,17.3
2018-06-27T10:10:40.159Z,17.2
2018-06-27T10:11:59.996Z,17.2
2018-06-27T10:13:19.865Z,17.2
2018-06-27T10:14:39.764Z,17.4
2018-06-27T10:15:59.640Z,17.2
2018-06-27T10:17:22.013Z,17.2
2018-06-27T10:18:49.469Z,17.3
2018-06-27T10:20:09.322Z,17.3
2018-06-27T10:21:29.232Z,17.3
2018-06-27T10:22:54.166Z,17.3
2018-06-27T10:24:14.023Z,17.3
2018-06-27T10:25:36.377Z,17.2
2018-06-27T10:26:56.203Z,17.4
2018-06-27T10:28:16.086Z,17.4
2018-06-27T10:29:35.939Z,17.4
2018-06-27T10:30:55.796Z,17.3
2018-06-27T10:32:15.632Z,17.3
2018-06-27T10:33:45.622Z,17.4
2018-06-27T10:35:10.506Z,17.3
2018-06-27T10:36:30.392Z,17.3
2018-06-27T10:37:50.223Z,17.3
2018-06-27T10:39:12.577Z,17.4
2018-06-27T10:40:32.452Z,17.4
2018-06-27T10:41:57.346Z,17.4
2018-06-27T10:43:17.178Z,17.4
2018-06-27T10:44:39.562Z,17.3
2018-06-27T10:46:01.924Z,17.3
2018-06-27T10:47:21.754Z,17.3
2018-06-27T10:48:41.580Z,17.4
2018-06-27T10:50:01.410Z,17.4
2018-06-27T10:51:21.255Z,17.5
2018-06-27T10:52:41.082Z,17.3
2018-06-27T10:54:03.437Z,17.4
2018-06-27T10:55:28.327Z,17.3
2018-06-27T10:56:50.688Z,17.5
2018-06-27T10:58:10.539Z,17.4
2018-06-27T10:59:30.383Z,17.4
2018-06-27T11:00:50.215Z,17.4
2018-06-27T11:02:10.044Z,17.4
2018-06-27T11:03:29.894Z,17.4
2018-06-27T11:04:52.256Z,17.5
2018-06-27T11:06:14.639Z,17.5
2018-06-27T11:07:37.003Z,17.5
2018-06-27T11:08:56.836Z,17.5
2018-06-27T11:10:19.215Z,17.5
2018-06-27T11:11:44.137Z,17.5
2018-06-27T11:13:09.067Z,17.5
2018-06-27T11:14:28.931Z,17.7
2018-06-27T11:15:51.307Z,17.5
2018-06-27T11:17:11.130Z,17.5
2018-06-27T11:18:30.953Z,17.6
2018-06-27T11:19:50.782Z,17.5
2018-06-27T11:21:20.737Z,17.6
2018-06-27T11:22:43.126Z,17.7
2018-06-27T11:24:02.952Z,17.7
2018-06-27T11:25:30.360Z,17.7
2018-06-27T11:26:50.225Z,17.7
2018-06-27T11:28:10.162Z,17.7
2018-06-27T11:29:30.043Z,17.7
2018-06-27T11:30:49.896Z,17.7
2018-06-27T11:32:09.718Z,17.7
2018-06-27T11:33:37.176Z,17.7
2018-06-27T11:35:02.072Z,17.7
2018-06-27T11:36:21.897Z,17.7
2018-06-27T11:37:41.735Z,17.7
2018-06-27T11:39:01.556Z,17.7
2018-06-27T11:40:23.968Z,17.7
2018-06-27T11:41:43.819Z,17.8
2018-06-27T11:43:03.667Z,17.8
2018-06-27T11:44:26.125Z,17.8
2018-06-27T11:45:45.965Z,17.8
2018-06-27T11:47:05.836Z,17.8
2018-06-27T11:48:25.663Z,17.8
2018-06-27T11:49:50.550Z,17.9
2018-06-27T11:51:17.989Z,17.9
2018-06-27T11:52:37.833Z,17.9
2018-06-27T11:54:00.196Z,17.8
2018-06-27T11:55:22.555Z,17.8
2018-06-27T11:56:42.380Z,17.8
2018-06-27T11:58:04.760Z,17.9
2018-06-27T11:59:24.590Z,17.8
2018-06-27T12:00:54.604Z,18
2018-06-27T12:02:14.466Z,18
2018-06-27T12:03:34.336Z,17.9
2018-06-27T12:04:54.236Z,18
2018-06-27T12:06:21.725Z,18.1
2018-06-27T12:07:41.710Z,18.3
2018-06-27T12:09:01.546Z,18.3
2018-06-27T12:10:21.404Z,18.4
2018-06-27T12:11:46.350Z,18.5
2018-06-27T12:13:08.735Z,18.6
2018-06-27T12:14:28.631Z,18.6
2018-06-27T12:15:53.561Z,18.8
2018-06-27T12:17:18.510Z,18.9
2018-06-27T12:18:40.863Z,19.1
2018-06-27T12:20:00.740Z,19.2
2018-06-27T12:21:20.570Z,19.5
2018-06-27T12:22:40.407Z,19.5
2018-06-27T12:24:02.777Z,19.7
2018-06-27T12:25:25.174Z,19.7
2018-06-27T12:26:55.178Z,19.6
2018-06-27T12:28:22.608Z,19.6
2018-06-27T12:29:42.437Z,19.8
2018-06-27T12:31:02.272Z,19.9
2018-06-27T12:32:24.690Z,19.9
2018-06-27T12:33:49.583Z,20.2
2018-06-27T12:35:14.461Z,20.1
2018-06-27T12:36:46.941Z,20.3
2018-06-27T12:38:06.771Z,20.5
2018-06-27T12:39:31.651Z,20.6
2018-06-27T12:40:59.092Z,20.6
2018-06-27T12:42:18.942Z,20.7
2018-06-27T12:43:38.857Z,20.7
2018-06-27T12:44:58.752Z,20.7
2018-06-27T12:46:18.607Z,20.6
2018-06-27T12:47:38.474Z,20.5
2018-06-27T12:49:00.846Z,20.3
2018-06-27T12:50:20.783Z,20.4
2018-06-27T12:51:40.638Z,20.5
2018-06-27T12:53:00.515Z,20.7
2018-06-27T12:54:22.930Z,20.7
2018-06-27T12:55:47.885Z,20.9
2018-06-27T12:57:07.715Z,20.9
2018-06-27T12:58:27.545Z,21.1
2018-06-27T12:59:49.944Z,21.3
2018-06-27T13:01:12.308Z,21.2
2018-06-27T13:02:37.228Z,21.3
2018-06-27T13:03:57.107Z,21.5
2018-06-27T13:05:16.933Z,21.4
2018-06-27T13:06:39.296Z,21.3
2018-06-27T13:08:04.256Z,21.2
2018-06-27T13:09:26.632Z,21
2018-06-27T13:10:46.507Z,21.1
2018-06-27T13:12:11.435Z,21.1
2018-06-27T13:13:33.827Z,21.1
2018-06-27T13:14:58.754Z,21.2
2018-06-27T13:16:18.614Z,20.9
2018-06-27T13:17:43.525Z,20.8
2018-06-27T13:19:03.382Z,20.8
2018-06-27T13:20:38.411Z,20.6
2018-06-27T13:22:00.778Z,20.5
2018-06-27T13:23:25.692Z,20.4
2018-06-27T13:24:45.518Z,20.4
2018-06-27T13:26:05.347Z,20.3
2018-06-27T13:27:27.734Z,20.2
2018-06-27T13:28:47.559Z,20.2
2018-06-27T13:30:07.385Z,20.2
2018-06-27T13:31:32.340Z,20.1
2018-06-27T13:32:52.171Z,20.1
2018-06-27T13:34:12.056Z,20.2
2018-06-27T13:35:34.451Z,20.1
2018-06-27T13:36:59.339Z,20
2018-06-27T13:38:19.184Z,20.2
2018-06-27T13:39:39.058Z,20.1
2018-06-27T13:41:01.474Z,20
2018-06-27T13:42:23.852Z,19.9
2018-06-27T13:43:46.261Z,20.1
2018-06-27T13:45:06.088Z,20.1
2018-06-27T13:46:25.971Z,20.3
2018-06-27T13:47:45.845Z,20.2
2018-06-27T13:49:13.297Z,20.4
2018-06-27T13:50:38.230Z,20.3
2018-06-27T13:51:58.124Z,20.6
2018-06-27T13:53:17.951Z,20.7
2018-06-27T13:54:37.860Z,20.6
2018-06-27T13:56:00.216Z,20.6
2018-06-27T13:57:20.042Z,20.7
2018-06-27T13:58:39.865Z,20.6
2018-06-27T13:59:59.689Z,21.1
2018-06-27T14:01:22.055Z,21.1
2018-06-27T14:02:49.474Z,21.1
2018-06-27T14:04:09.303Z,21.1
2018-06-27T14:05:31.701Z,21.2
2018-06-27T14:07:04.292Z,21.2
2018-06-27T14:08:59.689Z,21.2
2018-06-27T14:10:34.773Z,21.3
2018-06-27T14:11:59.711Z,21.3
2018-06-27T14:13:19.588Z,21.2
2018-06-27T14:14:59.761Z,21.2
2018-06-27T14:16:37.365Z,21.2
2018-06-27T14:17:57.226Z,21.1
2018-06-27T14:19:22.168Z,21.3
2018-06-27T14:21:19.584Z,21.5
2018-06-27T14:22:52.112Z,21.5
2018-06-27T14:24:22.163Z,21.6
2018-06-27T14:25:57.265Z,21.7
2018-06-27T14:27:17.133Z,21.7
2018-06-27T14:28:52.242Z,21.8
2018-06-27T14:30:29.855Z,21.7
2018-06-27T14:31:49.750Z,21.8
2018-06-27T14:33:17.257Z,21.9
2018-06-27T14:35:07.529Z,21.9
2018-06-27T14:37:00.348Z,21.9
2018-06-27T14:38:43.093Z,21.9
2018-06-27T14:40:10.778Z,21.9
2018-06-27T14:41:45.878Z,21.9
2018-06-27T14:43:15.916Z,21.8
2018-06-27T14:44:38.339Z,21.9
2018-06-27T14:46:10.955Z,21.8
2018-06-27T14:47:38.458Z,20.9
2018-06-27T14:49:05.918Z,20.7
2018-06-27T14:50:41.007Z,20.6
2018-06-27T14:52:23.752Z,20.8
2018-06-27T14:54:21.091Z,21.4
2018-06-27T14:55:48.601Z,21.3
2018-06-27T14:57:13.569Z,21.2
2018-06-27T14:58:35.967Z,21.1
2018-06-27T14:59:58.391Z,21.1
2018-06-27T15:01:30.908Z,21.3
2018-06-27T15:03:03.511Z,21.6
2018-06-27T15:04:53.925Z,21.8
2018-06-27T15:06:34.087Z,21.8
2018-06-27T15:07:53.951Z,21.7
2018-06-27T15:09:34.115Z,21.4
2018-06-27T15:11:31.442Z,21.3
2018-06-27T15:13:21.781Z,21.3
2018-06-27T15:14:44.193Z,21.3
2018-06-27T15:16:11.713Z,21.4
2018-06-27T15:17:56.929Z,21.4
2018-06-27T15:19:54.291Z,21.2
2018-06-27T15:21:29.359Z,21.2
2018-06-27T15:22:59.361Z,21.2
2018-06-27T15:24:39.542Z,21.1
2018-06-27T15:25:59.443Z,21
2018-06-27T15:27:56.869Z,20.8
2018-06-27T15:29:54.260Z,20.8
2018-06-27T15:31:14.129Z,20.9
2018-06-27T15:32:36.534Z,20.8
2018-06-27T15:34:33.899Z,21
2018-06-27T15:35:56.319Z,21
2018-06-27T15:37:31.435Z,21
2018-06-27T15:39:28.854Z,21.2
2018-06-27T15:40:56.331Z,21.3
2018-06-27T15:42:28.889Z,20.6
2018-06-27T15:44:06.539Z,20.6
2018-06-27T15:45:44.110Z,20.6
2018-06-27T15:47:34.397Z,20.2
2018-06-27T15:49:31.759Z,20.2
2018-06-27T15:51:19.506Z,20.3
2018-06-27T15:52:54.590Z,19.9
2018-06-27T15:54:51.987Z,19.9
2018-06-27T15:56:21.989Z,19.8
2018-06-27T15:57:57.065Z,19.9
2018-06-27T15:59:42.262Z,20.1
2018-06-27T16:01:39.624Z,20
2018-06-27T16:03:27.396Z,20
2018-06-27T16:05:20.231Z,20.5
2018-06-27T16:06:45.157Z,20.4
2018-06-27T16:08:07.656Z,20.4
2018-06-27T16:09:30.075Z,20.1
2018-06-27T16:10:57.508Z,20.5
2018-06-27T16:12:22.414Z,20.3
2018-06-27T16:13:42.298Z,20.1
2018-06-27T16:15:07.178Z,20.5
2018-06-27T16:16:27.016Z,20.2
2018-06-27T16:17:54.425Z,20.7
2018-06-27T16:19:19.308Z,20.5
2018-06-27T16:20:41.709Z,20.1
2018-06-27T16:22:01.540Z,20.6
2018-06-27T16:23:23.902Z,20.4
2018-06-27T16:24:48.791Z,20.4
2018-06-27T16:26:08.675Z,20.4
2018-06-27T16:27:28.543Z,20.2
2018-06-27T16:28:48.401Z,19.6
2018-06-27T16:30:15.815Z,20.2
2018-06-27T16:31:35.636Z,20.1
2018-06-27T16:32:55.503Z,19.7
2018-06-27T16:34:17.968Z,20.3
2018-06-27T16:35:37.922Z,20.1
2018-06-27T16:36:57.779Z,20.1
2018-06-27T16:38:17.672Z,19.6
2018-06-27T16:39:37.542Z,19.5
2018-06-27T16:40:57.388Z,20.1
2018-06-27T16:42:22.287Z,19.6
2018-06-27T16:43:42.167Z,19.6
2018-06-27T16:45:02.010Z,19.6
2018-06-27T16:46:21.947Z,19.9
2018-06-27T16:47:44.368Z,20
2018-06-27T16:49:11.777Z,19.5
2018-06-27T16:50:31.699Z,19.5
2018-06-27T16:51:56.643Z,19.7
2018-06-27T16:53:19.025Z,19.4
2018-06-27T16:54:38.908Z,20
2018-06-27T16:55:58.817Z,20
2018-06-27T16:57:23.701Z,19.4
2018-06-27T16:58:46.100Z,20
2018-06-27T17:00:23.638Z,19.9
2018-06-27T17:01:51.096Z,19.4
2018-06-27T17:03:10.925Z,19.5
2018-06-27T17:04:33.351Z,19.9
2018-06-27T17:05:53.216Z,19.9
2018-06-27T17:07:18.131Z,20
2018-06-27T17:08:38.012Z,19.5
2018-06-27T17:10:02.937Z,20.1
2018-06-27T17:11:25.305Z,19.9
2018-06-27T17:12:50.244Z,20.2
2018-06-27T17:14:10.079Z,20.3
2018-06-27T17:15:29.907Z,20.3
2018-06-27T17:16:49.741Z,20.3
2018-06-27T17:18:09.602Z,20.3
2018-06-27T17:19:32.010Z,20.4
2018-06-27T17:20:51.849Z,20.4
2018-06-27T17:22:11.679Z,20.5
2018-06-27T17:23:36.569Z,20.4
2018-06-27T17:24:56.412Z,20.5
2018-06-27T17:26:26.367Z,20.5
2018-06-27T17:27:53.836Z,20.6
2018-06-27T17:29:16.256Z,20.6
2018-06-27T17:30:38.612Z,20.6
2018-06-27T17:32:06.067Z,20.7
2018-06-27T17:33:28.458Z,20.5
2018-06-27T17:34:48.277Z,20.6
2018-06-27T17:36:10.638Z,20.6
2018-06-27T17:37:35.583Z,20.6
2018-06-27T17:38:55.418Z,20.6
2018-06-27T17:40:38.079Z,20.4
2018-06-27T17:42:00.481Z,20.4
2018-06-27T17:43:30.436Z,20.5
2018-06-27T17:44:52.862Z,20.4
2018-06-27T17:46:17.783Z,20.2
2018-06-27T17:47:40.194Z,20.4
2018-06-27T17:49:05.098Z,20.3
2018-06-27T17:50:32.547Z,20.2
2018-06-27T17:51:52.408Z,20.3
2018-06-27T17:53:24.877Z,20.2
2018-06-27T17:54:44.701Z,20.2
2018-06-27T17:56:04.525Z,20.2
2018-06-27T17:57:24.356Z,20.2
2018-06-27T17:58:51.784Z,20.3
2018-06-27T18:00:11.605Z,20.3
2018-06-27T18:01:31.480Z,20.2
2018-06-27T18:02:53.862Z,19.9
2018-06-27T18:04:13.697Z,19.9
2018-06-27T18:05:33.537Z,19.9
2018-06-27T18:06:53.392Z,20
2018-06-27T18:08:15.802Z,19.8
2018-06-27T18:09:43.219Z,20
2018-06-27T18:11:03.059Z,19.8
2018-06-27T18:12:28.022Z,19.7
2018-06-27T18:13:47.910Z,19.7
2018-06-27T18:15:07.785Z,19.7
2018-06-27T18:16:27.721Z,19.7
2018-06-27T18:17:55.159Z,19.6
2018-06-27T18:19:25.115Z,19.7
2018-06-27T18:20:44.943Z,19.6
2018-06-27T18:22:14.882Z,19.5
2018-06-27T18:23:34.766Z,19.5
2018-06-27T18:24:59.640Z,19.5
2018-06-27T18:26:27.095Z,19.5
2018-06-27T18:27:49.474Z,19.5
2018-06-27T18:29:14.431Z,19.6
2018-06-27T18:30:44.454Z,19.4
2018-06-27T18:32:04.278Z,19.4
2018-06-27T18:33:26.705Z,19.4
2018-06-27T18:34:49.109Z,19.3
2018-06-27T18:36:14.019Z,19.3
2018-06-27T18:37:33.898Z,19.3